Time;durP1;ratioP1;P1;durP2;ratioP2;P2;SDS_P1;SDS_P2;PMS_P1;PMS_P2;Temp;Humidity;BMP_temperature;BMP_pressure;BME280_temperature;BME280_humidity;BME280_pressure;Samples;Min_cycle;Max_cycle;Signal;HPM_P1;HPM_P2
2021/07/28 00:02:21;;;;;;;5.30;4.90;;;;;;;22.92;94.13;95451.28;6098303;23;20705;-83
2021/07/28 00:04:47;;;;;;;5.65;5.20;;;;;;;22.86;93.98;95459.41;6097172;23;20200;-85
2021/07/28 00:07:14;;;;;;;5.35;4.85;;;;;;;22.93;92.66;95465.22;6096703;23;20216;-81
2021/07/28 00:09:40;;;;;;;4.88;4.38;;;;;;;23.00;91.36;95476.28;6095232;23;20225;-81
2021/07/28 00:12:08;;;;;;;4.75;4.30;;;;;;;23.03;89.46;95476.56;6094904;23;20187;-81
2021/07/28 00:14:34;;;;;;;5.20;4.65;;;;;;;23.06;89.37;95476.06;6094073;23;20203;-81
2021/07/28 00:17:01;;;;;;;5.22;4.70;;;;;;;23.06;89.80;95486.56;6094612;23;20185;-81
2021/07/28 00:19:32;;;;;;;5.45;4.78;;;;;;;23.02;90.82;95498.63;6095290;23;20200;-81
2021/07/28 00:24:42;;;;;;;5.30;4.90;;;;;;;22.97;89.79;95505.66;6095029;23;20203;-81
2021/07/28 00:27:09;;;;;;;6.00;5.20;;;;;;;22.93;91.82;95515.09;6095302;23;20180;-82
2021/07/28 00:29:37;;;;;;;5.93;4.97;;;;;;;22.86;90.27;95510.09;6095712;23;20180;-81
2021/07/28 00:32:04;;;;;;;5.22;4.82;;;;;;;22.82;89.61;95506.41;6095768;23;20176;-81
2021/07/28 00:34:32;;;;;;;4.88;4.47;;;;;;;22.79;89.24;95504.28;6095204;23;20192;-81
2021/07/28 00:36:59;;;;;;;4.63;4.22;;;;;;;22.69;86.40;95504.22;6095433;23;20184;-81
2021/07/28 00:39:25;;;;;;;5.88;4.75;;;;;;;22.66;87.91;95497.63;6094449;23;20179;-82
2021/07/28 00:41:51;;;;;;;4.60;4.10;;;;;;;22.67;87.54;95483.47;6094916;23;20514;-83
2021/07/28 00:44:18;;;;;;;4.70;4.30;;;;;;;22.68;88.32;95476.38;6094421;23;20200;-84
2021/07/28 00:46:44;;;;;;;4.45;4.05;;;;;;;22.62;88.00;95483.44;6094155;23;20168;-81
2021/07/28 00:49:11;;;;;;;4.93;4.53;;;;;;;22.57;88.08;95480.75;6094139;23;20222;-82
2021/07/28 00:51:39;;;;;;;5.13;4.15;;;;;;;22.54;88.10;95475.22;6094338;23;20189;-81
2021/07/28 00:54:05;;;;;;;4.32;3.92;;;;;;;22.49;85.78;95472.59;6093606;23;20892;-81
2021/07/28 00:56:32;;;;;;;4.85;4.30;;;;;;;22.42;86.31;95464.94;6094117;23;20188;-83
2021/07/28 00:58:59;;;;;;;4.82;4.30;;;;;;;22.26;87.71;95466.69;6093824;23;20176;-82
2021/07/28 01:01:27;;;;;;;4.47;4.07;;;;;;;22.17;87.94;95455.06;6094412;23;20703;-81
2021/07/28 01:03:54;;;;;;;4.38;4.07;;;;;;;22.09;89.71;95452.13;6094612;23;20196;-82
2021/07/28 01:06:20;;;;;;;4.45;4.05;;;;;;;22.09;91.25;95447.69;6094671;23;20539;-82
2021/07/28 01:08:48;;;;;;;4.82;4.38;;;;;;;22.05;91.46;95442.16;6094637;23;20208;-82
2021/07/28 01:11:23;;;;;;;4.60;4.05;;;;;;;21.95;90.42;95436.00;6094271;23;20664;-81
2021/07/28 01:13:49;;;;;;;5.43;4.22;;;;;;;21.96;91.23;95427.09;6094511;23;20685;-82
2021/07/28 01:16:21;;;;;;;4.95;4.30;;;;;;;21.83;89.82;95417.03;6094701;23;20187;-81
2021/07/28 01:18:48;;;;;;;4.05;3.70;;;;;;;21.89;90.06;95422.06;6094320;23;20160;-82
2021/07/28 01:21:17;;;;;;;5.65;5.13;;;;;;;21.84;89.54;95422.03;6094206;23;20689;-82
2021/07/28 01:23:47;;;;;;;4.22;3.83;;;;;;;21.77;89.38;95416.19;6093830;23;20717;-81
2021/07/28 01:26:15;;;;;;;5.60;4.13;;;;;;;21.81;90.41;95427.75;6094584;23;20179;-82
2021/07/28 01:28:42;;;;;;;4.50;4.07;;;;;;;21.80;89.24;95423.56;6094326;23;20200;-81
2021/07/28 01:31:11;;;;;;;5.78;4.15;;;;;;;21.90;89.76;95426.28;6094656;23;20183;-82
2021/07/28 01:33:39;;;;;;;4.28;3.88;;;;;;;21.96;89.69;95429.72;6093676;23;20196;-83
2021/07/28 01:36:07;;;;;;;4.22;3.90;;;;;;;22.00;88.64;95433.44;6094616;23;20176;-82
2021/07/28 01:38:34;;;;;;;4.13;3.60;;;;;;;22.05;88.93;95446.59;6094565;23;20177;-83
2021/07/28 01:41:03;;;;;;;4.57;3.97;;;;;;;22.13;88.16;95453.97;6094463;23;20184;-83
2021/07/28 01:43:30;;;;;;;5.03;4.05;;;;;;;22.15;87.76;95461.59;6094209;23;20204;-82
2021/07/28 01:45:58;;;;;;;4.32;3.90;;;;;;;22.16;86.26;95458.72;6094365;23;20177;-82
2021/07/28 01:48:25;;;;;;;4.40;4.03;;;;;;;22.13;87.24;95451.34;6093677;23;20200;-83
2021/07/28 01:50:54;;;;;;;3.88;3.58;;;;;;;22.02;88.96;95453.13;6094999;23;20172;-83
2021/07/28 01:53:20;;;;;;;5.47;4.28;;;;;;;22.05;88.96;95459.72;6095322;23;20303;-85
2021/07/28 01:55:47;;;;;;;4.15;3.85;;;;;;;22.05;89.41;95457.09;6093577;23;20516;-84
2021/07/28 01:58:14;;;;;;;4.68;4.28;;;;;;;22.10;89.74;95448.47;6093952;23;20164;-85
2021/07/28 02:00:42;;;;;;;5.35;4.13;;;;;;;22.11;89.75;95445.59;6093389;23;20180;-81
2021/07/28 02:03:09;;;;;;;4.43;4.03;;;;;;;22.10;89.91;95441.41;6093912;23;20207;-81
2021/07/28 02:05:36;;;;;;;4.40;4.00;;;;;;;22.11;89.60;95445.59;6092505;23;20214;-83
2021/07/28 02:08:05;;;;;;;4.78;4.38;;;;;;;22.09;89.32;95437.19;6093748;23;20196;-81
2021/07/28 02:10:33;;;;;;;4.65;4.25;;;;;;;21.95;88.11;95423.66;6093770;23;20232;-83
2021/07/28 02:13:00;;;;;;;4.07;3.78;;;;;;;21.92;88.68;95431.28;6094264;23;20187;-81
2021/07/28 02:15:29;;;;;;;5.10;4.60;;;;;;;21.75;92.25;95425.34;6093670;23;20177;-82
2021/07/28 02:17:57;;;;;;;4.97;4.50;;;;;;;21.75;91.30;95418.28;6093767;23;20172;-81
2021/07/28 02:20:24;;;;;;;4.50;4.07;;;;;;;21.61;91.77;95423.16;6094712;23;20540;-83
2021/07/28 02:22:51;;;;;;;4.22;3.92;;;;;;;21.62;93.32;95422.09;6094515;23;20180;-84
2021/07/28 02:25:18;;;;;;;4.25;3.85;;;;;;;21.73;91.60;95428.25;6095019;23;20198;-81
2021/07/28 02:27:44;;;;;;;4.40;4.10;;;;;;;21.84;90.21;95423.84;6095562;23;20177;-82
2021/07/28 02:30:13;;;;;;;4.38;4.03;;;;;;;21.88;89.59;95435.44;6095032;23;20211;-83
2021/07/28 02:32:41;;;;;;;4.40;4.00;;;;;;;21.90;87.83;95418.41;6096251;23;20184;-81
2021/07/28 02:35:08;;;;;;;4.65;4.25;;;;;;;21.79;90.04;95421.97;6093898;23;20208;-82
2021/07/28 02:37:36;;;;;;;4.07;3.78;;;;;;;21.75;89.59;95425.34;6093937;23;20184;-83
2021/07/28 02:40:04;;;;;;;4.00;3.70;;;;;;;21.81;90.41;95434.84;6093819;23;20633;-83
2021/07/28 02:42:30;;;;;;;3.90;3.60;;;;;;;21.77;89.32;95442.41;6094310;23;20180;-82
2021/07/28 02:44:56;;;;;;;4.47;3.75;;;;;;;21.85;87.70;95444.59;6094431;23;20200;-81
2021/07/28 02:47:23;;;;;;;3.67;3.38;;;;;;;21.92;87.20;95437.31;6094086;23;20183;-82
2021/07/28 02:49:51;;;;;;;4.22;3.83;;;;;;;22.00;86.86;95443.94;6094009;23;20200;-81
2021/07/28 02:52:18;;;;;;;4.00;3.70;;;;;;;21.98;87.64;95448.59;6094348;23;20176;-81
2021/07/28 02:54:44;;;;;;;4.10;3.45;;;;;;;21.94;87.75;95456.16;6093682;23;20207;-81
2021/07/28 02:57:11;;;;;;;4.18;3.63;;;;;;;21.93;88.54;95459.88;6093339;23;20192;-81
2021/07/28 02:59:37;;;;;;;4.18;3.78;;;;;;;21.91;88.60;95461.94;6093648;23;20172;-82
2021/07/28 03:02:04;;;;;;;3.47;3.22;;;;;;;21.86;88.43;95451.41;6094125;23;20180;-81
2021/07/28 03:04:32;;;;;;;4.47;3.63;;;;;;;21.84;87.84;95447.44;6064483;23;20704;-82
2021/07/28 03:07:00;;;;;;;3.63;3.28;;;;;;;21.79;87.06;95444.78;6064088;23;20778;-82
2021/07/28 03:09:27;;;;;;;3.67;3.30;;;;;;;21.68;87.71;95433.44;6064649;23;20704;-81
2021/07/28 03:11:53;;;;;;;3.47;3.20;;;;;;;21.66;87.33;95438.91;6065296;23;20180;-82
2021/07/28 03:14:19;;;;;;;3.58;3.28;;;;;;;21.67;86.60;95437.88;6065552;23;20206;-82
2021/07/28 03:16:46;;;;;;;3.30;3.03;;;;;;;21.62;87.45;95437.84;6065871;23;20176;-81
2021/07/28 03:19:12;;;;;;;3.88;3.45;;;;;;;21.60;88.45;95441.75;6065902;23;20520;-83
2021/07/28 03:21:39;;;;;;;3.28;3.05;;;;;;;21.67;87.30;95434.47;6065816;23;20642;-83
2021/07/28 03:24:07;;;;;;;3.75;3.17;;;;;;;21.65;87.13;95441.78;6065128;23;20201;-82
2021/07/28 03:26:33;;;;;;;3.50;3.20;;;;;;;21.66;87.17;95454.66;6064928;23;20255;-81
2021/07/28 03:28:59;;;;;;;3.88;3.10;;;;;;;21.60;87.98;95447.78;6064574;23;20673;-84
2021/07/28 03:31:26;;;;;;;4.03;3.63;;;;;;;21.62;87.39;95437.03;6065736;23;20181;-82
2021/07/28 03:33:52;;;;;;;3.97;3.30;;;;;;;21.63;87.58;95444.66;6065010;23;20201;-81
2021/07/28 03:36:19;;;;;;;3.80;3.38;;;;;;;21.60;87.94;95450.38;6067213;23;20177;-84
2021/07/28 03:38:45;;;;;;;3.90;3.60;;;;;;;21.49;90.26;95448.72;6067807;23;20173;-85
2021/07/28 03:41:13;;;;;;;4.20;3.40;;;;;;;21.50;90.12;95452.13;6067186;23;20211;-84
2021/07/28 03:43:39;;;;;;;4.80;3.25;;;;;;;21.53;90.63;95451.66;6067452;23;20200;-84
2021/07/28 03:46:06;;;;;;;3.60;3.30;;;;;;;21.54;89.47;95448.78;6067277;23;20173;-84
2021/07/28 03:48:32;;;;;;;3.75;3.45;;;;;;;21.45;91.80;95446.84;6067438;23;20566;-84
2021/07/28 03:50:59;;;;;;;4.38;3.38;;;;;;;21.49;90.43;95435.63;6067334;23;20208;-86
2021/07/28 03:53:26;;;;;;;3.75;3.45;;;;;;;21.44;90.87;95430.34;6066789;23;20274;-85
2021/07/28 03:55:52;;;;;;;4.43;3.78;;;;;;;21.44;91.40;95421.69;6066480;23;20184;-82
2021/07/28 03:58:20;;;;;;;4.22;3.80;;;;;;;21.35;93.18;95427.38;6066602;23;20188;-82
2021/07/28 04:00:47;;;;;;;4.03;3.72;;;;;;;21.43;92.06;95422.72;6067432;23;20349;-82
2021/07/28 04:03:13;;;;;;;4.25;3.85;;;;;;;21.32;94.32;95420.03;6066445;23;20287;-81
2021/07/28 04:05:40;;;;;;;4.60;3.63;;;;;;;21.37;92.66;95420.03;6066541;23;20244;-82
2021/07/28 04:08:06;;;;;;;4.38;3.30;;;;;;;21.48;91.90;95414.91;6066416;23;20199;-83
2021/07/28 04:10:32;;;;;;;5.68;3.70;;;;;;;21.52;91.88;95416.78;6066112;23;20221;-84
2021/07/28 04:12:59;;;;;;;4.10;3.80;;;;;;;21.54;92.08;95416.56;6065532;23;20177;-84
2021/07/28 04:15:30;;;;;;;3.85;3.50;;;;;;;21.50;92.93;95403.16;6066533;23;20188;-86
2021/07/28 04:17:56;;;;;;;4.22;3.83;;;;;;;21.59;91.73;95416.56;6066803;23;20161;-86
2021/07/28 04:20:23;;;;;;;3.88;3.47;;;;;;;21.58;93.26;95418.41;6066908;23;20173;-85
2021/07/28 04:22:50;;;;;;;4.25;3.80;;;;;;;21.59;92.29;95422.59;6066069;23;20518;-84
2021/07/28 04:25:16;;;;;;;7.15;4.10;;;;;;;21.62;92.35;95423.94;6066131;23;20177;-85
2021/07/28 04:27:43;;;;;;;4.20;3.70;;;;;;;21.67;91.64;95426.63;6066878;23;20386;-83
2021/07/28 04:30:11;;;;;;;5.43;3.75;;;;;;;21.76;91.53;95417.22;6066791;23;20197;-83
2021/07/28 04:32:38;;;;;;;5.00;3.38;;;;;;;21.84;90.90;95423.84;6066960;23;20200;-83
2021/07/28 04:35:06;;;;;;;5.60;4.10;;;;;;;21.90;90.39;95428.91;6066533;23;20196;-85
2021/07/28 04:37:32;;;;;;;3.97;3.53;;;;;;;21.95;89.73;95434.16;6067295;23;20184;-84
2021/07/28 04:40:01;;;;;;;3.72;3.42;;;;;;;21.94;89.77;95442.28;6066122;23;20173;-83
2021/07/28 04:42:29;;;;;;;3.65;3.35;;;;;;;21.95;89.82;95441.22;6067779;23;20504;-86
2021/07/28 04:44:55;;;;;;;3.92;3.28;;;;;;;21.92;89.26;95434.69;6064819;23;20232;-86
2021/07/28 04:47:22;;;;;;;3.55;3.25;;;;;;;21.82;90.10;95437.22;6066406;23;20187;-87
2021/07/28 04:49:51;;;;;;;5.07;3.67;;;;;;;21.82;90.27;95439.03;6066235;23;20204;-85
2021/07/28 04:52:22;;;;;;;3.38;3.08;;;;;;;21.81;89.21;95440.88;6065986;23;20209;-84
2021/07/28 04:54:49;;;;;;;5.50;3.40;;;;;;;21.77;88.56;95445.03;6066302;23;20602;-83
2021/07/28 04:57:16;;;;;;;19.67;17.70;;;;;;;21.73;89.10;95446.59;6065619;23;20189;-84
2021/07/28 04:59:42;;;;;;;5.78;5.32;;;;;;;21.67;88.43;95444.97;6066666;23;20665;-84
2021/07/28 05:02:09;;;;;;;3.80;3.50;;;;;;;21.70;88.02;95442.63;6064240;23;20200;-85
2021/07/28 05:04:35;;;;;;;4.65;3.63;;;;;;;21.67;88.32;95439.72;6067510;23;20247;-85
2021/07/28 05:07:03;;;;;;;3.63;3.30;;;;;;;21.63;87.92;95438.63;6066940;23;20213;-85
2021/07/28 05:09:32;;;;;;;3.63;2.95;;;;;;;21.67;88.04;95440.50;6065977;23;20204;-83
2021/07/28 05:11:58;;;;;;;6.85;4.20;;;;;;;21.66;88.82;95438.91;6067881;23;20232;-87
2021/07/28 05:14:25;;;;;;;3.20;2.92;;;;;;;21.67;88.51;95439.72;6067058;23;20196;-85
2021/07/28 05:16:52;;;;;;;3.60;3.30;;;;;;;21.58;89.63;95433.34;6066586;23;20265;-83
2021/07/28 05:19:23;;;;;;;3.65;3.33;;;;;;;21.69;88.10;95427.16;6067007;23;20157;-84
2021/07/28 05:21:49;;;;;;;3.88;3.17;;;;;;;21.84;87.91;95421.25;6066797;23;20170;-84
2021/07/28 05:24:19;;;;;;;3.78;3.25;;;;;;;21.84;88.56;95422.03;6067055;23;20208;-84
2021/07/28 05:26:46;;;;;;;5.97;4.22;;;;;;;21.87;87.46;95421.53;6069129;23;20184;-84
2021/07/28 05:29:12;;;;;;;3.67;3.38;;;;;;;21.92;87.66;95423.41;6069248;23;20540;-86
2021/07/28 05:31:39;;;;;;;3.92;3.28;;;;;;;21.93;86.39;95414.50;6068493;23;20180;-83
2021/07/28 05:34:05;;;;;;;4.18;3.25;;;;;;;;;;6066574;23;20200;-84
2021/07/28 05:36:31;;;;;;;3.88;3.42;;;;;;;21.97;86.32;95418.97;6067989;23;20189;-85
2021/07/28 05:39:01;;;;;;;6.95;3.30;;;;;;;21.93;86.35;95419.75;6066894;23;20172;-86
2021/07/28 05:41:28;;;;;;;3.75;3.38;;;;;;;21.92;87.57;95423.41;6066792;23;20200;-85
2021/07/28 05:43:55;;;;;;;3.40;3.10;;;;;;;21.96;88.04;95424.47;6066018;23;20218;-84
2021/07/28 05:46:21;;;;;;;4.03;3.60;;;;;;;22.00;87.28;95418.50;6067537;23;20187;-84
2021/07/28 05:48:48;;;;;;;3.42;3.13;;;;;;;22.02;87.30;95424.28;6068191;23;20162;-84
2021/07/28 05:51:14;;;;;;;4.32;3.85;;;;;;;21.87;90.04;95423.38;6067818;23;20530;-84
2021/07/28 05:53:41;;;;;;;4.43;4.03;;;;;;;21.85;88.37;95423.59;6067186;23;20283;-84
2021/07/28 05:56:07;;;;;;;3.88;3.47;;;;;;;21.94;87.38;95424.72;6066275;23;20694;-84
2021/07/28 05:58:35;;;;;;;3.60;3.30;;;;;;;22.01;87.14;95417.47;6066564;23;20524;-86
2021/07/28 06:01:01;;;;;;;5.13;3.42;;;;;;;22.17;87.20;95423.59;6066760;23;20213;-85
2021/07/28 06:03:28;;;;;;;3.92;3.30;;;;;;;22.25;86.31;95417.09;6066248;23;20197;-84
2021/07/28 06:05:59;;;;;;;4.20;3.17;;;;;;;22.34;84.70;95418.97;6066329;23;20209;-84
2021/07/28 06:08:26;;;;;;;7.43;3.70;;;;;;;22.42;85.54;95419.53;6065858;23;20165;-84
2021/07/28 06:10:52;;;;;;;4.32;3.92;;;;;;;22.38;85.61;95425.28;6066128;23;20207;-84
2021/07/28 06:13:23;;;;;;;4.32;3.85;;;;;;;22.37;86.31;95423.72;6066609;23;20197;-86
2021/07/28 06:15:51;;;;;;;5.13;4.13;;;;;;;22.26;87.24;95423.91;6066570;23;20662;-83
2021/07/28 06:18:18;;;;;;;4.90;4.43;;;;;;;22.20;88.49;95422.31;6066401;23;20184;-85
2021/07/28 06:20:44;;;;;;;4.97;4.13;;;;;;;22.22;87.24;95409.72;6067111;23;20370;-86
2021/07/28 06:25:28;;;;;;;3.90;3.60;;;;;;;22.24;86.67;95412.88;5149826;27;20354;-87
2021/07/28 06:27:54;;;;;;;3.95;3.65;;;;;;;22.36;86.51;95413.47;5149638;27;20272;-86
2021/07/28 06:30:21;;;;;;;5.18;4.30;;;;;;;22.56;86.14;95418.81;5146714;27;20210;-88
2021/07/28 06:32:47;;;;;;;4.18;3.72;;;;;;;22.69;85.83;95413.13;5149548;27;20194;-87
2021/07/28 06:35:14;;;;;;;4.32;3.88;;;;;;;22.75;85.30;95412.06;5129137;27;20215;-84
2021/07/28 06:37:43;;;;;;;4.35;3.95;;;;;;;22.73;85.87;95416.78;5128537;28;20203;-87
2021/07/28 06:40:11;;;;;;;6.47;4.00;;;;;;;22.72;85.98;95419.69;5128871;28;20199;-87
2021/07/28 06:42:38;;;;;;;5.93;3.70;;;;;;;22.67;86.78;95412.59;5129534;28;20226;-87
2021/07/28 06:45:06;;;;;;;5.65;4.40;;;;;;;22.57;88.78;95407.28;5128151;27;20225;-86
2021/07/28 06:47:33;;;;;;;4.45;4.05;;;;;;;22.55;90.07;95417.25;5130030;28;20214;-87
2021/07/28 06:49:59;;;;;;;5.60;4.35;;;;;;;22.46;92.55;95418.78;5128744;28;20203;-88
2021/07/28 06:52:26;;;;;;;7.85;4.25;;;;;;;22.51;90.40;95415.41;5128228;28;20285;-88
2021/07/28 06:54:52;;;;;;;4.20;3.80;;;;;;;22.59;89.91;95418.31;5128400;27;20221;-87
2021/07/28 06:57:18;;;;;;;4.25;3.85;;;;;;;22.70;89.34;95419.97;5128466;28;20191;-88
2021/07/28 06:59:46;;;;;;;3.97;3.67;;;;;;;22.75;87.53;95419.16;5129240;28;20203;-86
2021/07/28 07:02:13;;;;;;;4.72;4.25;;;;;;;22.80;86.98;95424.47;5130795;28;20213;-87
2021/07/28 07:04:39;;;;;;;5.80;3.80;;;;;;;22.75;85.68;95427.03;5127232;27;20222;-86
2021/07/28 07:07:06;;;;;;;4.53;3.88;;;;;;;22.74;86.72;95420.22;5088235;28;20299;-85
2021/07/28 07:09:32;;;;;;;5.85;4.47;;;;;;;22.79;87.41;95416.84;5077409;28;20197;-86
2021/07/28 07:11:58;;;;;;;6.22;3.97;;;;;;;22.79;87.92;95415.03;5087143;28;20192;-87
2021/07/28 07:14:25;;;;;;;5.35;4.53;;;;;;;22.80;90.10;95418.44;5086993;28;20219;-86
2021/07/28 07:16:55;;;;;;;5.28;4.45;;;;;;;22.88;93.25;95418.75;5087168;28;20663;-85
2021/07/28 07:19:21;;;;;;;6.72;4.30;;;;;;;22.99;91.53;95414.28;5086911;28;20593;-86
2021/07/28 07:21:51;;;;;;;5.82;4.20;;;;;;;23.03;89.40;95426.66;5086927;28;20578;-87
2021/07/28 07:24:17;;;;;;;5.50;4.30;;;;;;;23.06;88.79;95420.09;5086115;28;20225;-86
2021/07/28 07:26:44;;;;;;;5.13;4.72;;;;;;;23.14;87.98;95418.78;5086485;28;20214;-86
2021/07/28 07:29:10;;;;;;;4.90;4.50;;;;;;;23.12;88.24;95420.88;5086200;28;20200;-86
2021/07/28 07:31:36;;;;;;;5.95;5.20;;;;;;;23.07;87.46;95419.06;5086091;28;20238;-85
2021/07/28 07:34:04;;;;;;;5.97;5.30;;;;;;;23.05;85.24;95421.16;5086314;28;20235;-83
2021/07/28 07:36:31;;;;;;;5.57;4.93;;;;;;;23.02;85.92;95427.72;5074621;28;20219;-85
2021/07/28 07:38:57;;;;;;;6.47;5.88;;;;;;;23.05;84.98;95418.53;5073098;28;20228;-87
2021/07/28 07:41:24;;;;;;;7.40;5.43;;;;;;;23.06;84.62;95413.03;5068150;28;20211;-87
2021/07/28 07:43:50;;;;;;;5.60;5.20;;;;;;;23.08;84.55;95418.00;5071750;28;20224;-86
2021/07/28 07:46:17;;;;;;;5.78;5.25;;;;;;;23.06;85.18;95414.84;5073207;28;20196;-86
2021/07/28 07:48:43;;;;;;;6.28;5.22;;;;;;;23.09;84.72;95416.97;5073039;28;20213;-85
2021/07/28 07:51:11;;;;;;;6.18;5.63;;;;;;;23.09;84.51;95419.59;5072416;28;20200;-87
2021/07/28 07:53:38;;;;;;;6.50;5.55;;;;;;;23.05;85.36;95429.03;5071343;28;20221;-86
2021/07/28 07:56:05;;;;;;;6.32;5.75;;;;;;;23.01;86.18;95430.59;5073617;28;20202;-87
2021/07/28 07:58:40;;;;;;;6.82;6.07;;;;;;;23.03;86.21;95431.91;5075367;28;20204;-84
2021/07/28 08:01:07;;;;;;;6.75;6.15;;;;;;;23.04;85.01;95433.50;5074018;28;20231;-86
2021/07/28 08:03:38;;;;;;;6.55;5.85;;;;;;;23.03;84.39;95439.00;5073660;28;20224;-85
2021/07/28 08:06:15;;;;;;;8.45;6.38;;;;;;;22.97;84.06;95437.41;5072779;28;20256;-86
2021/07/28 08:08:46;;;;;;;7.43;6.72;;;;;;;22.89;84.76;95430.03;5074922;28;20382;-85
2021/07/28 08:11:21;;;;;;;7.10;6.43;;;;;;;22.88;84.71;95429.25;5075663;28;20196;-86
2021/07/28 08:13:51;;;;;;;6.68;6.07;;;;;;;22.82;84.39;95435.50;5074591;28;20220;-87
2021/07/28 08:16:23;;;;;;;7.53;6.72;;;;;;;22.80;84.99;95437.59;5076131;28;20200;-84
2021/07/28 08:18:59;;;;;;;8.25;6.50;;;;;;;22.78;84.95;95434.44;5073652;28;20260;-87
2021/07/28 08:21:33;;;;;;;7.28;6.57;;;;;;;22.74;85.48;95447.25;5073367;28;20193;-87
2021/07/28 08:24:35;;;;;;;7.28;6.57;;;;;;;22.68;86.09;95442.25;5072885;28;20748;-87
2021/07/28 08:27:18;;;;;;;7.38;6.65;;;;;;;22.55;86.72;95442.69;5074891;28;20197;-87
2021/07/28 08:29:49;;;;;;;7.47;6.78;;;;;;;22.52;87.52;95451.06;5074159;28;20227;-86
2021/07/28 08:32:30;;;;;;;7.97;7.28;;;;;;;22.47;86.73;95446.59;5072989;28;20209;-87
2021/07/28 08:35:04;;;;;;;7.85;7.05;;;;;;;22.46;87.16;95441.59;5055250;28;20739;-86
2021/07/28 08:37:32;;;;;;;7.78;7.07;;;;;;;22.35;88.17;95444.16;5068074;28;20229;-87
2021/07/28 08:40:05;;;;;;;8.30;7.60;;;;;;;22.33;88.54;95445.44;5073527;28;20254;-86
2021/07/28 08:42:33;;;;;;;7.93;7.22;;;;;;;22.30;89.13;95448.59;5074399;28;20205;-87
2021/07/28 08:45:02;;;;;;;8.15;7.35;;;;;;;22.26;90.47;95453.56;5073316;28;20307;-87
2021/07/28 08:47:29;;;;;;;8.40;7.60;;;;;;;22.24;90.74;95463.50;5074077;28;20192;-86
2021/07/28 08:49:55;;;;;;;8.52;7.70;;;;;;;22.15;90.31;95467.63;5073434;28;20211;-87
2021/07/28 08:52:24;;;;;;;9.10;7.90;;;;;;;22.17;90.50;95480.50;5074237;28;20200;-87
2021/07/28 08:54:52;;;;;;;8.35;7.30;;;;;;;22.12;91.03;95488.34;5073362;28;20303;-86
2021/07/28 08:57:18;;;;;;;8.65;7.85;;;;;;;22.14;90.88;95487.03;5073756;28;20216;-86
2021/07/28 08:59:45;;;;;;;8.90;8.02;;;;;;;22.13;93.09;95487.31;5073973;28;20211;-87
2021/07/28 09:02:12;;;;;;;9.18;8.27;;;;;;;22.11;92.25;95492.81;5074346;28;20200;-86
2021/07/28 09:04:40;;;;;;;10.38;9.27;;;;;;;22.10;91.89;95493.84;5073995;28;20256;-85
2021/07/28 09:07:13;;;;;;;10.00;9.10;;;;;;;21.86;95.08;95482.06;5073931;28;20512;-86
2021/07/28 09:09:50;;;;;;;9.63;8.63;;;;;;;21.78;94.87;95493.78;5073021;28;20197;-87
2021/07/28 09:12:18;;;;;;;9.70;8.70;;;;;;;21.68;94.80;95489.25;5072166;28;20196;-87
2021/07/28 09:14:52;;;;;;;9.73;8.90;;;;;;;21.59;95.50;95497.81;5073097;28;20227;-87
2021/07/28 09:17:23;;;;;;;10.63;9.50;;;;;;;21.60;95.60;95502.00;5073188;28;20600;-85
2021/07/28 09:19:51;;;;;;;9.98;9.07;;;;;;;21.61;95.65;95504.38;5071984;28;20201;-87
2021/07/28 09:22:18;;;;;;;10.40;9.30;;;;;;;21.54;95.43;95505.63;5072582;28;20211;-87
2021/07/28 09:24:47;;;;;;;10.70;9.68;;;;;;;21.49;97.17;95508.19;5071639;28;20312;-85
2021/07/28 09:27:46;;;;;;;10.30;9.40;;;;;;;21.50;96.52;95522.88;5073305;28;20200;-86
2021/07/28 09:30:19;;;;;;;10.55;9.55;;;;;;;21.37;96.87;95526.66;5073537;28;20204;-85
2021/07/28 09:33:02;;;;;;;13.95;11.93;;;;;;;21.40;97.20;95523.53;5072871;28;20208;-86
2021/07/28 09:36:11;;;;;;;58.20;34.55;;;;;;;21.31;99.82;95514.56;5072698;28;20260;-86
2021/07/28 09:38:43;;;;;;;14.68;12.32;;;;;;;21.34;99.12;95520.09;5072546;28;20200;-87
2021/07/28 09:41:24;;;;;;;13.82;12.32;;;;;;;21.28;99.70;95520.28;5071928;28;20216;-85
2021/07/28 09:43:54;;;;;;;15.32;13.48;;;;;;;21.18;100.00;95514.88;5052265;28;20300;-86
2021/07/28 09:46:35;;;;;;;12.15;10.90;;;;;;;21.17;99.49;95510.66;5052002;28;20684;-86
2021/07/28 09:49:04;;;;;;;11.32;10.23;;;;;;;21.15;100.00;95521.41;5052483;28;20197;-83
2021/07/28 09:51:33;;;;;;;11.07;10.10;;;;;;;21.18;100.00;95515.66;5066052;28;20249;-86
2021/07/28 09:54:01;;;;;;;10.52;9.52;;;;;;;21.21;99.14;95530.13;5071225;28;20224;-87
2021/07/28 09:56:30;;;;;;;10.90;9.85;;;;;;;21.09;100.00;95529.44;5071655;28;20663;-84
2021/07/28 09:58:59;;;;;;;11.45;10.35;;;;;;;21.18;99.98;95539.25;5072233;28;20220;-84
2021/07/28 10:01:28;;;;;;;11.15;10.13;;;;;;;21.17;99.62;95552.56;5071817;28;20208;-84
2021/07/28 10:03:57;;;;;;;10.65;9.75;;;;;;;21.07;99.70;95568.97;5072009;28;20246;-83
2021/07/28 10:06:29;;;;;;;10.93;9.82;;;;;;;21.07;100.00;95576.81;5071788;28;20240;-84
2021/07/28 10:08:57;;;;;;;9.60;8.70;;;;;;;21.09;100.00;95584.44;5071863;28;20224;-84
2021/07/28 10:11:24;;;;;;;9.27;8.15;;;;;;;21.06;98.88;95585.69;5071467;28;20207;-84
2021/07/28 10:13:52;;;;;;;8.25;7.55;;;;;;;21.10;99.38;95583.41;5071777;28;20219;-84
2021/07/28 10:16:20;;;;;;;8.27;7.20;;;;;;;21.12;97.31;95589.97;5072674;28;20208;-84
2021/07/28 10:18:49;;;;;;;6.50;5.90;;;;;;;21.04;94.61;95582.53;5071677;28;20201;-84
2021/07/28 10:21:16;;;;;;;6.50;5.80;;;;;;;21.05;94.13;95578.88;5071199;28;20232;-83
2021/07/28 10:23:43;;;;;;;6.22;5.30;;;;;;;21.12;93.48;95586.56;5069873;28;20224;-83
2021/07/28 10:26:14;;;;;;;6.15;5.65;;;;;;;21.06;95.46;95590.16;5051081;28;20221;-83
2021/07/28 10:28:46;;;;;;;5.95;5.35;;;;;;;21.03;93.52;95586.97;5051697;28;20205;-82
2021/07/28 10:31:13;;;;;;;6.63;5.60;;;;;;;21.12;93.28;95586.56;5051367;28;20205;-84
2021/07/28 10:33:50;;;;;;;5.72;5.15;;;;;;;21.17;91.36;95590.03;5051112;28;20217;-83
2021/07/28 10:36:17;;;;;;;4.78;4.38;;;;;;;21.20;89.64;95588.78;5050948;28;20201;-82
2021/07/28 10:38:55;;;;;;;4.60;4.20;;;;;;;21.22;89.97;95576.25;5051955;28;20735;-84
2021/07/28 10:41:48;;;;;;;5.30;4.80;;;;;;;21.22;89.36;95571.78;5051342;28;20665;-84
2021/07/28 10:44:16;;;;;;;5.40;4.90;;;;;;;21.24;88.85;95576.78;5052087;28;20225;-83
2021/07/28 10:47:22;;;;;;;5.20;4.60;;;;;;;21.23;90.88;95577.81;5051328;28;20201;-84
2021/07/28 10:49:50;;;;;;;6.20;4.45;;;;;;;21.29;90.08;95566.38;5051641;28;20211;-84
2021/07/28 10:52:37;;;;;;;5.07;4.57;;;;;;;21.28;87.99;95573.44;5052431;28;20240;-84
2021/07/28 10:55:18;;;;;;;4.88;4.38;;;;;;;21.25;87.63;95576.56;5049947;28;20220;-83
2021/07/28 10:58:24;;;;;;;5.57;4.13;;;;;;;21.27;87.27;95576.31;5050830;28;20210;-84
2021/07/28 11:00:58;;;;;;;4.50;3.92;;;;;;;21.27;87.10;95578.94;5064810;28;20216;-85
2021/07/28 11:03:36;;;;;;;4.13;3.83;;;;;;;21.20;86.36;95562.59;5070924;28;20668;-84
2021/07/28 11:06:35;;;;;;;4.40;4.10;;;;;;;21.28;87.70;95572.66;5063071;28;20244;-84
2021/07/28 11:09:28;;;;;;;5.25;4.15;;;;;;;21.51;88.70;95563.75;5073591;28;20201;-85
2021/07/28 11:11:54;;;;;;;4.35;3.95;;;;;;;21.68;86.04;95557.41;5060051;28;20192;-84
2021/07/28 11:14:31;;;;;;;4.57;4.28;;;;;;;21.88;90.31;95562.06;5075405;28;20255;-84
2021/07/28 11:16:57;;;;;;;4.28;3.97;;;;;;;22.18;84.96;95560.75;5074959;28;20207;-84
2021/07/28 11:19:24;;;;;;;4.40;4.00;;;;;;;22.22;83.32;95562.66;5074680;28;20215;-83
2021/07/28 11:21:50;;;;;;;5.93;4.32;;;;;;;22.54;84.58;95562.63;5074644;28;20211;-85
2021/07/28 11:24:18;;;;;;;5.07;4.40;;;;;;;22.78;85.26;95557.81;5073962;28;20235;-84
2021/07/28 11:26:46;;;;;;;4.45;4.05;;;;;;;23.03;86.78;95557.19;5074628;28;20212;-85
2021/07/28 11:29:17;;;;;;;4.68;4.28;;;;;;;22.90;80.63;95558.41;5074559;28;20212;-85
2021/07/28 11:31:46;;;;;;;4.78;4.38;;;;;;;22.77;81.18;95573.81;5074972;28;20908;-84
2021/07/28 11:34:18;;;;;;;4.70;4.30;;;;;;;22.90;83.18;95568.91;5076805;28;20270;-86
2021/07/28 11:36:53;;;;;;;4.50;4.10;;;;;;;22.94;81.13;95580.50;5077899;28;20201;-86
2021/07/28 11:39:22;;;;;;;4.55;4.13;;;;;;;22.83;80.28;95580.72;5076609;28;20197;-84
2021/07/28 11:41:51;;;;;;;5.03;4.53;;;;;;;22.74;77.71;95582.97;5075088;28;20197;-83
2021/07/28 11:44:19;;;;;;;4.70;3.45;;;;;;;22.56;73.84;95584.16;5075124;28;20217;-83
2021/07/28 11:46:52;;;;;;;3.88;3.60;;;;;;;22.61;76.48;95584.19;5076187;28;20430;-84